sensor_id;sensor_type;location;lat;lon;timestamp;pressure;altitude;pressure_sealevel;temperature;humidity
47761;BME280;33524;55.434;38.520;2023-04-07T00:01:03;101136.06;;;1.08;65.06
47761;BME280;33524;55.434;38.520;2023-04-07T00:03:31;101134.94;;;1.20;66.28
47761;BME280;33524;55.434;38.520;2023-04-07T00:06:00;101142.69;;;1.59;68.40
47761;BME280;33524;55.434;38.520;2023-04-07T00:08:28;101124.34;;;0.90;64.56
47761;BME280;33524;55.434;38.520;2023-04-07T00:10:56;101143.72;;;1.52;67.43
47761;BME280;33524;55.434;38.520;2023-04-07T00:13:24;101134.06;;;1.19;66.88
47761;BME280;33524;55.434;38.520;2023-04-07T00:15:53;101135.91;;;1.16;66.26
47761;BME280;33524;55.434;38.520;2023-04-07T00:18:21;101136.75;;;1.15;66.98
47761;BME280;33524;55.434;38.520;2023-04-07T00:20:49;101135.16;;;0.67;64.92
47761;BME280;33524;55.434;38.520;2023-04-07T00:23:17;101140.38;;;1.08;66.56
47761;BME280;33524;55.434;38.520;2023-04-07T00:25:51;101136.75;;;1.15;65.39
47761;BME280;33524;55.434;38.520;2023-04-07T00:28:19;101136.31;;;0.52;65.81
47761;BME280;33524;55.434;38.520;2023-04-07T00:30:47;101136.66;;;1.19;67.61
47761;BME280;33524;55.434;38.520;2023-04-07T00:33:15;101137.44;;;1.25;66.90
47761;BME280;33524;55.434;38.520;2023-04-07T00:35:43;101138.06;;;0.94;65.30
47761;BME280;33524;55.434;38.520;2023-04-07T00:38:12;101143.19;;;1.37;66.67
47761;BME280;33524;55.434;38.520;2023-04-07T00:40:40;101136.84;;;1.12;68.34
47761;BME280;33524;55.434;38.520;2023-04-07T00:43:07;101143.97;;;1.41;69.05
47761;BME280;33524;55.434;38.520;2023-04-07T00:45:36;101135.41;;;0.97;67.74
47761;BME280;33524;55.434;38.520;2023-04-07T00:48:04;101138.22;;;1.28;68.40
47761;BME280;33524;55.434;38.520;2023-04-07T00:50:32;101138.25;;;1.27;68.91
47761;BME280;33524;55.434;38.520;2023-04-07T00:53:01;101120.09;;;0.43;66.36
47761;BME280;33524;55.434;38.520;2023-04-07T00:55:29;101137.00;;;0.62;66.69
47761;BME280;33524;55.434;38.520;2023-04-07T00:57:57;101128.19;;;1.13;68.61
47761;BME280;33524;55.434;38.520;2023-04-07T01:00:26;101132.19;;;0.86;65.78
47761;BME280;33524;55.434;38.520;2023-04-07T01:02:59;101128.94;;;0.76;69.12
47761;BME280;33524;55.434;38.520;2023-04-07T01:05:44;101131.84;;;1.03;69.35
47761;BME280;33524;55.434;38.520;2023-04-07T01:08:29;101131.66;;;1.12;69.23
47761;BME280;33524;55.434;38.520;2023-04-07T01:11:47;101139.88;;;1.70;69.48
47761;BME280;33524;55.434;38.520;2023-04-07T01:14:17;101134.31;;;0.67;66.58
47761;BME280;33524;55.434;38.520;2023-04-07T01:16:51;101137.12;;;0.54;66.53
47761;BME280;33524;55.434;38.520;2023-04-07T01:22:10;101132.44;;;0.73;69.11
47761;BME280;33524;55.434;38.520;2023-04-07T01:27:42;101137.41;;;0.84;69.40
47761;BME280;33524;55.434;38.520;2023-04-07T01:30:14;101140.81;;;0.86;69.33
47761;BME280;33524;55.434;38.520;2023-04-07T01:32:46;101140.78;;;0.89;70.68
47761;BME280;33524;55.434;38.520;2023-04-07T01:35:18;101142.16;;;1.06;70.00
47761;BME280;33524;55.434;38.520;2023-04-07T01:37:47;101137.75;;;1.48;69.67
47761;BME280;33524;55.434;38.520;2023-04-07T01:40:17;101140.06;;;1.21;69.79
47761;BME280;33524;55.434;38.520;2023-04-07T01:42:46;101144.38;;;1.23;70.07
47761;BME280;33524;55.434;38.520;2023-04-07T01:45:16;101139.34;;;0.29;68.90
47761;BME280;33524;55.434;38.520;2023-04-07T01:47:45;101145.13;;;0.42;68.23
47761;BME280;33524;55.434;38.520;2023-04-07T01:50:14;101148.00;;;0.72;67.94
47761;BME280;33524;55.434;38.520;2023-04-07T01:52:44;101145.87;;;0.47;69.71
47761;BME280;33524;55.434;38.520;2023-04-07T01:55:13;101145.06;;;0.89;70.75
47761;BME280;33524;55.434;38.520;2023-04-07T01:57:41;101144.03;;;0.07;68.30
47761;BME280;33524;55.434;38.520;2023-04-07T02:00:11;101138.44;;;1.17;70.82
47761;BME280;33524;55.434;38.520;2023-04-07T02:02:44;101145.94;;;0.46;70.43
47761;BME280;33524;55.434;38.520;2023-04-07T02:05:18;101140.66;;;0.94;71.26
47761;BME280;33524;55.434;38.520;2023-04-07T02:08:04;101142.47;;;0.90;70.42
47761;BME280;33524;55.434;38.520;2023-04-07T02:10:36;101143.13;;;0.56;70.71
47761;BME280;33524;55.434;38.520;2023-04-07T02:13:07;101144.75;;;0.62;68.94
47761;BME280;33524;55.434;38.520;2023-04-07T02:15:39;101149.84;;;0.67;71.65
47761;BME280;33524;55.434;38.520;2023-04-07T02:18:08;101147.59;;;0.50;69.50
47761;BME280;33524;55.434;38.520;2023-04-07T02:20:39;101151.87;;;0.94;70.52
47761;BME280;33524;55.434;38.520;2023-04-07T02:23:11;101148.91;;;0.71;71.66
47761;BME280;33524;55.434;38.520;2023-04-07T02:25:40;101153.34;;;0.64;72.52
47761;BME280;33524;55.434;38.520;2023-04-07T02:28:09;101152.22;;;0.31;70.54
47761;BME280;33524;55.434;38.520;2023-04-07T02:30:36;101140.78;;;0.89;70.21
47761;BME280;33524;55.434;38.520;2023-04-07T02:33:04;101146.38;;;0.66;71.49
47761;BME280;33524;55.434;38.520;2023-04-07T02:35:32;101155.34;;;0.50;72.34
47761;BME280;33524;55.434;38.520;2023-04-07T02:38:01;101155.03;;;0.65;71.05
47761;BME280;33524;55.434;38.520;2023-04-07T02:40:29;101145.94;;;0.89;71.69
47761;BME280;33524;55.434;38.520;2023-04-07T02:42:58;101168.72;;;0.72;70.70
47761;BME280;33524;55.434;38.520;2023-04-07T02:45:26;101161.06;;;0.66;72.47
47761;BME280;33524;55.434;38.520;2023-04-07T02:47:53;101156.56;;;0.75;71.86
47761;BME280;33524;55.434;38.520;2023-04-07T02:50:22;101159.00;;;0.38;71.41
47761;BME280;33524;55.434;38.520;2023-04-07T02:52:50;101165.53;;;0.57;70.82
47761;BME280;33524;55.434;38.520;2023-04-07T02:55:18;101162.84;;;0.64;72.70
47761;BME280;33524;55.434;38.520;2023-04-07T02:57:46;101169.28;;;0.88;71.57
47761;BME280;33524;55.434;38.520;2023-04-07T03:00:15;101167.62;;;0.37;72.95
47761;BME280;33524;55.434;38.520;2023-04-07T03:02:44;101165.13;;;0.34;72.10
47761;BME280;33524;55.434;38.520;2023-04-07T03:05:13;101164.12;;;0.41;72.63
47761;BME280;33524;55.434;38.520;2023-04-07T03:07:41;101164.09;;;0.43;72.43
47761;BME280;33524;55.434;38.520;2023-04-07T03:10:09;101167.31;;;0.55;70.85
47761;BME280;33524;55.434;38.520;2023-04-07T03:12:38;101168.34;;;0.90;72.09
47761;BME280;33524;55.434;38.520;2023-04-07T03:15:06;101169.88;;;1.00;70.78
47761;BME280;33524;55.434;38.520;2023-04-07T03:17:35;101169.37;;;0.83;71.15
47761;BME280;33524;55.434;38.520;2023-04-07T03:20:04;101176.09;;;0.93;70.67
47761;BME280;33524;55.434;38.520;2023-04-07T03:22:34;101175.94;;;1.41;70.26
47761;BME280;33524;55.434;38.520;2023-04-07T03:25:05;101178.34;;;1.49;69.41
47761;BME280;33524;55.434;38.520;2023-04-07T03:27:34;101186.69;;;1.23;71.08
47761;BME280;33524;55.434;38.520;2023-04-07T03:30:03;101185.00;;;1.22;69.02
47761;BME280;33524;55.434;38.520;2023-04-07T03:32:31;101178.69;;;1.34;70.28
47761;BME280;33524;55.434;38.520;2023-04-07T03:34:59;101185.38;;;1.04;68.94
47761;BME280;33524;55.434;38.520;2023-04-07T03:37:28;101183.28;;;1.60;68.23
47761;BME280;33524;55.434;38.520;2023-04-07T03:39:58;101187.66;;;1.58;69.32
47761;BME280;33524;55.434;38.520;2023-04-07T03:42:26;101190.13;;;1.64;68.32
47761;BME280;33524;55.434;38.520;2023-04-07T03:44:55;101190.41;;;1.88;68.77
47761;BME280;33524;55.434;38.520;2023-04-07T03:47:24;101194.47;;;1.99;69.01
47761;BME280;33524;55.434;38.520;2023-04-07T03:49:53;101196.34;;;2.29;68.42
47761;BME280;33524;55.434;38.520;2023-04-07T03:52:21;101199.09;;;2.22;68.64
47761;BME280;33524;55.434;38.520;2023-04-07T03:54:50;101197.44;;;2.54;67.73
47761;BME280;33524;55.434;38.520;2023-04-07T03:57:20;101197.44;;;2.54;67.81
47761;BME280;33524;55.434;38.520;2023-04-07T03:59:49;101202.94;;;2.75;66.99
47761;BME280;33524;55.434;38.520;2023-04-07T04:02:18;101203.34;;;2.92;67.20
47761;BME280;33524;55.434;38.520;2023-04-07T04:04:48;101203.00;;;3.05;66.96
47761;BME280;33524;55.434;38.520;2023-04-07T04:07:16;101202.69;;;3.15;66.64
47761;BME280;33524;55.434;38.520;2023-04-07T04:09:44;101194.62;;;3.25;66.34
47761;BME280;33524;55.434;38.520;2023-04-07T04:12:12;101207.19;;;3.38;66.11
47761;BME280;33524;55.434;38.520;2023-04-07T04:14:41;101203.25;;;3.55;65.58
47761;BME280;33524;55.434;38.520;2023-04-07T04:17:09;101202.97;;;3.64;65.45
47761;BME280;33524;55.434;38.520;2023-04-07T04:19:38;101205.41;;;3.40;64.32
47761;BME280;33524;55.434;38.520;2023-04-07T04:22:08;101212.31;;;3.98;65.08
47761;BME280;33524;55.434;38.520;2023-04-07T04:24:37;101206.59;;;4.13;64.61
47761;BME280;33524;55.434;38.520;2023-04-07T04:27:06;101206.13;;;4.29;63.97
47761;BME280;33524;55.434;38.520;2023-04-07T04:29:35;101212.16;;;4.29;63.44
47761;BME280;33524;55.434;38.520;2023-04-07T04:32:04;101213.94;;;4.54;64.07
47761;BME280;33524;55.434;38.520;2023-04-07T04:34:33;101209.28;;;4.63;63.46
47761;BME280;33524;55.434;38.520;2023-04-07T04:37:01;101209.22;;;4.65;63.67
47761;BME280;33524;55.434;38.520;2023-04-07T04:39:29;101211.25;;;5.05;63.05
47761;BME280;33524;55.434;38.520;2023-04-07T04:41:58;101218.34;;;5.25;62.73
47761;BME280;33524;55.434;38.520;2023-04-07T04:44:29;101210.50;;;5.49;62.01
47761;BME280;33524;55.434;38.520;2023-04-07T04:46:59;101214.88;;;5.49;62.44
47761;BME280;33524;55.434;38.520;2023-04-07T04:49:27;101225.41;;;5.69;62.22
47761;BME280;33524;55.434;38.520;2023-04-07T04:51:58;101215.81;;;5.92;61.44
47761;BME280;33524;55.434;38.520;2023-04-07T04:54:30;101223.66;;;6.14;61.30
47761;BME280;33524;55.434;38.520;2023-04-07T04:56:59;101217.28;;;5.99;60.49
47761;BME280;33524;55.434;38.520;2023-04-07T04:59:28;101226.50;;;6.50;60.66
47761;BME280;33524;55.434;38.520;2023-04-07T05:01:57;101225.84;;;6.65;60.57
47761;BME280;33524;55.434;38.520;2023-04-07T05:04:25;101229.13;;;6.91;60.09
47761;BME280;33524;55.434;38.520;2023-04-07T05:06:56;101197.72;;;6.91;59.34
47761;BME280;33524;55.434;38.520;2023-04-07T05:09:25;101233.28;;;7.35;59.07
47761;BME280;33524;55.434;38.520;2023-04-07T05:11:52;101229.03;;;7.51;58.57
47761;BME280;33524;55.434;38.520;2023-04-07T05:14:21;101237.09;;;7.46;58.74
47761;BME280;33524;55.434;38.520;2023-04-07T05:16:50;101225.50;;;7.71;57.68
47761;BME280;33524;55.434;38.520;2023-04-07T05:19:19;101243.41;;;7.98;57.30
47761;BME280;33524;55.434;38.520;2023-04-07T05:21:48;101229.75;;;8.27;58.04
47761;BME280;33524;55.434;38.520;2023-04-07T05:24:19;101234.53;;;8.37;52.89
47761;BME280;33524;55.434;38.520;2023-04-07T05:26:50;101233.31;;;8.79;57.02
47761;BME280;33524;55.434;38.520;2023-04-07T05:29:18;101235.62;;;8.85;57.23
47761;BME280;33524;55.434;38.520;2023-04-07T05:31:45;101233.50;;;8.58;57.70
47761;BME280;33524;55.434;38.520;2023-04-07T05:34:14;101239.97;;;8.68;57.74
47761;BME280;33524;55.434;38.520;2023-04-07T05:36:42;101243.00;;;8.24;51.52
47761;BME280;33524;55.434;38.520;2023-04-07T05:39:10;101240.37;;;9.27;56.56
47761;BME280;33524;55.434;38.520;2023-04-07T05:41:39;101244.56;;;9.79;55.89
47761;BME280;33524;55.434;38.520;2023-04-07T05:44:07;101244.56;;;9.79;53.06
47761;BME280;33524;55.434;38.520;2023-04-07T05:46:36;101242.19;;;9.75;55.94
47761;BME280;33524;55.434;38.520;2023-04-07T05:49:04;101242.12;;;10.22;55.37
47761;BME280;33524;55.434;38.520;2023-04-07T05:51:47;101239.44;;;10.54;54.56
47761;BME280;33524;55.434;38.520;2023-04-07T05:54:15;101253.13;;;10.29;52.12
47761;BME280;33524;55.434;38.520;2023-04-07T05:56:43;101245.34;;;11.31;53.34
47761;BME280;33524;55.434;38.520;2023-04-07T05:59:12;101248.75;;;11.19;52.87
47761;BME280;33524;55.434;38.520;2023-04-07T06:01:41;101249.47;;;11.49;52.96
47761;BME280;33524;55.434;38.520;2023-04-07T06:04:10;101243.19;;;11.79;52.39
47761;BME280;33524;55.434;38.520;2023-04-07T06:06:38;101249.47;;;11.49;46.58
47761;BME280;33524;55.434;38.520;2023-04-07T06:09:06;101244.16;;;11.78;53.11
47761;BME280;33524;55.434;38.520;2023-04-07T06:11:34;101240.03;;;12.28;52.02
47761;BME280;33524;55.434;38.520;2023-04-07T06:14:03;101235.03;;;12.51;51.68
47761;BME280;33524;55.434;38.520;2023-04-07T06:16:31;101254.84;;;11.34;51.07
47761;BME280;33524;55.434;38.520;2023-04-07T06:19:00;101252.16;;;11.91;53.90
47761;BME280;33524;55.434;38.520;2023-04-07T06:21:28;101245.81;;;13.12;51.06
47761;BME280;33524;55.434;38.520;2023-04-07T06:23:57;101243.87;;;13.52;49.09
47761;BME280;33524;55.434;38.520;2023-04-07T06:26:26;101243.00;;;13.65;49.26
47761;BME280;33524;55.434;38.520;2023-04-07T06:28:54;101241.16;;;13.78;48.71
47761;BME280;33524;55.434;38.520;2023-04-07T06:31:23;101247.56;;;13.87;49.47
47761;BME280;33524;55.434;38.520;2023-04-07T06:33:51;101250.94;;;14.37;48.72
47761;BME280;33524;55.434;38.520;2023-04-07T06:36:19;101249.25;;;14.71;47.49
47761;BME280;33524;55.434;38.520;2023-04-07T06:38:48;101245.88;;;14.69;46.74
47761;BME280;33524;55.434;38.520;2023-04-07T06:41:16;101253.50;;;14.85;46.83
47761;BME280;33524;55.434;38.520;2023-04-07T06:43:48;101258.53;;;14.42;44.25
47761;BME280;33524;55.434;38.520;2023-04-07T06:46:18;101266.63;;;11.84;53.84
47761;BME280;33524;55.434;38.520;2023-04-07T06:48:46;101248.88;;;14.65;49.35
47761;BME280;33524;55.434;38.520;2023-04-07T06:51:14;101245.12;;;14.56;49.01
47761;BME280;33524;55.434;38.520;2023-04-07T06:53:42;101247.34;;;15.64;47.42
47761;BME280;33524;55.434;38.520;2023-04-07T06:56:11;101249.88;;;15.54;46.45
47761;BME280;33524;55.434;38.520;2023-04-07T06:58:39;101247.72;;;16.14;44.85
47761;BME280;33524;55.434;38.520;2023-04-07T07:01:07;101241.19;;;16.18;44.43
47761;BME280;33524;55.434;38.520;2023-04-07T07:03:35;101248.94;;;15.55;47.59
47761;BME280;33524;55.434;38.520;2023-04-07T07:06:03;101244.09;;;16.15;46.58
47761;BME280;33524;55.434;38.520;2023-04-07T07:08:32;101248.72;;;16.55;44.98
47761;BME280;33524;55.434;38.520;2023-04-07T07:11:00;101245.00;;;16.79;42.58
47761;BME280;33524;55.434;38.520;2023-04-07T07:13:28;101244.94;;;16.48;43.30
47761;BME280;33524;55.434;38.520;2023-04-07T07:15:56;101250.59;;;15.79;46.20
47761;BME280;33524;55.434;38.520;2023-04-07T07:18:24;101239.50;;;16.70;44.20
47761;BME280;33524;55.434;38.520;2023-04-07T07:20:52;101243.53;;;17.17;42.97
47761;BME280;33524;55.434;38.520;2023-04-07T07:23:20;101249.19;;;17.33;44.26
47761;BME280;33524;55.434;38.520;2023-04-07T07:25:48;101244.94;;;17.61;42.26
47761;BME280;33524;55.434;38.520;2023-04-07T07:28:16;101237.81;;;17.62;41.24
47761;BME280;33524;55.434;38.520;2023-04-07T07:30:45;101240.66;;;17.89;39.76
47761;BME280;33524;55.434;38.520;2023-04-07T07:33:13;101247.94;;;17.37;43.24
47761;BME280;33524;55.434;38.520;2023-04-07T07:35:41;101246.03;;;18.09;40.77
47761;BME280;33524;55.434;38.520;2023-04-07T07:38:10;101248.66;;;17.89;36.07
47761;BME280;33524;55.434;38.520;2023-04-07T07:40:38;101253.16;;;17.99;41.96
47761;BME280;33524;55.434;38.520;2023-04-07T07:43:06;101242.63;;;18.46;40.35
47761;BME280;33524;55.434;38.520;2023-04-07T07:45:34;101255.13;;;18.35;38.86
47761;BME280;33524;55.434;38.520;2023-04-07T07:48:02;101241.88;;;17.25;42.93
47761;BME280;33524;55.434;38.520;2023-04-07T07:50:30;101246.00;;;13.84;40.68
47761;BME280;33524;55.434;38.520;2023-04-07T07:52:58;101254.69;;;17.41;42.11
47761;BME280;33524;55.434;38.520;2023-04-07T07:55:28;101248.38;;;16.81;38.00
47761;BME280;33524;55.434;38.520;2023-04-07T07:57:55;101265.53;;;15.91;45.62
47761;BME280;33524;55.434;38.520;2023-04-07T08:00:24;101248.75;;;18.75;40.89
47761;BME280;33524;55.434;38.520;2023-04-07T08:02:52;101245.94;;;19.24;38.18
47761;BME280;33524;55.434;38.520;2023-04-07T08:05:20;101263.44;;;18.99;38.17
47761;BME280;33524;55.434;38.520;2023-04-07T08:07:50;101239.66;;;18.88;38.41
47761;BME280;33524;55.434;38.520;2023-04-07T08:10:21;101241.16;;;19.00;37.79
47761;BME280;33524;55.434;38.520;2023-04-07T08:12:50;101248.22;;;17.94;40.22
47761;BME280;33524;55.434;38.520;2023-04-07T08:15:17;101249.59;;;18.76;37.71
47761;BME280;33524;55.434;38.520;2023-04-07T08:17:46;101246.16;;;18.07;36.05
47761;BME280;33524;55.434;38.520;2023-04-07T08:20:14;101247.44;;;17.63;33.65
47761;BME280;33524;55.434;38.520;2023-04-07T08:22:42;101243.47;;;18.56;39.68
47761;BME280;33524;55.434;38.520;2023-04-07T08:25:11;101235.31;;;18.58;37.25
47761;BME280;33524;55.434;38.520;2023-04-07T08:27:39;101236.09;;;18.97;39.61
47761;BME280;33524;55.434;38.520;2023-04-07T08:30:07;101237.37;;;20.04;38.46
47761;BME280;33524;55.434;38.520;2023-04-07T08:32:37;101239.53;;;20.44;35.40
47761;BME280;33524;55.434;38.520;2023-04-07T08:35:05;101236.78;;;20.10;36.27
47761;BME280;33524;55.434;38.520;2023-04-07T08:37:34;101241.72;;;20.41;36.07
47761;BME280;33524;55.434;38.520;2023-04-07T08:40:03;101240.41;;;20.09;35.79
47761;BME280;33524;55.434;38.520;2023-04-07T08:42:33;101237.44;;;20.30;36.12
47761;BME280;33524;55.434;38.520;2023-04-07T08:45:03;101232.81;;;20.14;36.23
47761;BME280;33524;55.434;38.520;2023-04-07T08:47:34;101239.94;;;20.31;35.37
47761;BME280;33524;55.434;38.520;2023-04-07T08:50:07;101236.84;;;20.18;36.43
47761;BME280;33524;55.434;38.520;2023-04-07T08:55:15;101228.75;;;17.84;40.44
47761;BME280;33524;55.434;38.520;2023-04-07T08:57:44;101237.47;;;20.56;35.59
47761;BME280;33524;55.434;38.520;2023-04-07T09:00:13;101232.41;;;19.45;33.60
47761;BME280;33524;55.434;38.520;2023-04-07T09:02:42;101233.06;;;20.47;35.62
47761;BME280;33524;55.434;38.520;2023-04-07T09:05:16;101241.38;;;20.44;35.87
47761;BME280;33524;55.434;38.520;2023-04-07T09:07:43;101230.97;;;20.76;34.76
47761;BME280;33524;55.434;38.520;2023-04-07T09:10:11;101244.94;;;16.90;30.58
47761;BME280;33524;55.434;38.520;2023-04-07T09:12:40;101237.28;;;18.75;35.69
47761;BME280;33524;55.434;38.520;2023-04-07T09:15:08;101229.75;;;19.08;39.05
47761;BME280;33524;55.434;38.520;2023-04-07T09:17:36;101236.78;;;20.28;37.18
47761;BME280;33524;55.434;38.520;2023-04-07T09:20:05;101233.06;;;19.20;30.13
47761;BME280;33524;55.434;38.520;2023-04-07T09:22:41;101240.66;;;14.21;27.94
47761;BME280;33524;55.434;38.520;2023-04-07T09:25:17;101238.44;;;20.73;36.52
47761;BME280;33524;55.434;38.520;2023-04-07T09:27:59;101233.87;;;19.58;32.14
47761;BME280;33524;55.434;38.520;2023-04-07T09:30:29;101216.09;;;21.08;35.58
47761;BME280;33524;55.434;38.520;2023-04-07T09:32:59;101232.38;;;21.66;34.35
47761;BME280;33524;55.434;38.520;2023-04-07T09:35:28;101226.22;;;21.82;34.38
47761;BME280;33524;55.434;38.520;2023-04-07T09:38:06;101224.19;;;20.90;34.32
47761;BME280;33524;55.434;38.520;2023-04-07T09:40:35;101234.41;;;18.20;37.57
47761;BME280;33524;55.434;38.520;2023-04-07T09:43:05;101226.97;;;17.03;43.07
47761;BME280;33524;55.434;38.520;2023-04-07T09:45:33;101216.19;;;21.33;35.55
47761;BME280;33524;55.434;38.520;2023-04-07T09:48:07;101222.53;;;21.83;34.97
47761;BME280;33524;55.434;38.520;2023-04-07T09:50:39;101219.56;;;22.10;34.58
47761;BME280;33524;55.434;38.520;2023-04-07T09:53:08;101218.06;;;22.00;34.67
47761;BME280;33524;55.434;38.520;2023-04-07T09:55:36;101206.34;;;22.50;33.10
47761;BME280;33524;55.434;38.520;2023-04-07T09:58:07;101215.03;;;21.94;34.32
47761;BME280;33524;55.434;38.520;2023-04-07T10:00:36;101215.72;;;22.13;32.67
47761;BME280;33524;55.434;38.520;2023-04-07T10:03:06;101217.00;;;20.91;34.37
47761;BME280;33524;55.434;38.520;2023-04-07T10:05:36;101222.44;;;18.53;31.35
47761;BME280;33524;55.434;38.520;2023-04-07T10:08:06;101233.94;;;18.44;39.32
47761;BME280;33524;55.434;38.520;2023-04-07T10:10:34;101218.06;;;22.49;33.58
47761;BME280;33524;55.434;38.520;2023-04-07T10:13:04;101217.03;;;21.92;33.76
47761;BME280;33524;55.434;38.520;2023-04-07T10:15:33;101221.09;;;21.03;35.19
47761;BME280;33524;55.434;38.520;2023-04-07T10:18:03;101211.78;;;20.19;33.09
47761;BME280;33524;55.434;38.520;2023-04-07T10:20:35;101216.94;;;19.21;32.79
47761;BME280;33524;55.434;38.520;2023-04-07T10:23:18;101217.72;;;19.31;40.86
47761;BME280;33524;55.434;38.520;2023-04-07T10:25:50;101229.31;;;18.46;40.80
47761;BME280;33524;55.434;38.520;2023-04-07T10:28:20;101221.56;;;17.55;30.18
47761;BME280;33524;55.434;38.520;2023-04-07T10:30:50;101200.78;;;20.84;37.83
47761;BME280;33524;55.434;38.520;2023-04-07T10:33:45;101205.88;;;17.62;29.99
47761;BME280;33524;55.434;38.520;2023-04-07T10:36:16;101207.03;;;22.27;35.58
47761;BME280;33524;55.434;38.520;2023-04-07T10:41:35;101211.16;;;20.61;36.64
47761;BME280;33524;55.434;38.520;2023-04-07T10:44:17;101206.44;;;20.37;33.09
47761;BME280;33524;55.434;38.520;2023-04-07T10:49:23;101198.47;;;22.40;35.03
47761;BME280;33524;55.434;38.520;2023-04-07T10:54:39;101212.25;;;20.76;29.09
47761;BME280;33524;55.434;38.520;2023-04-07T10:57:14;101201.59;;;20.59;35.27
47761;BME280;33524;55.434;38.520;2023-04-07T11:02:38;101201.28;;;22.63;34.21
47761;BME280;33524;55.434;38.520;2023-04-07T11:05:07;101193.56;;;22.85;33.69
47761;BME280;33524;55.434;38.520;2023-04-07T11:07:52;101210.91;;;19.19;27.96
47761;BME280;33524;55.434;38.520;2023-04-07T11:10:22;101207.63;;;18.98;25.99
47761;BME280;33524;55.434;38.520;2023-04-07T11:13:06;101209.56;;;19.61;30.75
47761;BME280;33524;55.434;38.520;2023-04-07T11:15:36;101207.03;;;17.19;45.14
47761;BME280;33524;55.434;38.520;2023-04-07T11:18:17;101201.66;;;21.35;32.39
47761;BME280;33524;55.434;38.520;2023-04-07T11:20:56;101202.72;;;21.08;36.46
47761;BME280;33524;55.434;38.520;2023-04-07T11:23:27;101199.66;;;20.43;31.11
47761;BME280;33524;55.434;38.520;2023-04-07T11:26:00;101211.12;;;13.79;27.92
47761;BME280;33524;55.434;38.520;2023-04-07T11:28:29;101208.62;;;19.98;38.18
47761;BME280;33524;55.434;38.520;2023-04-07T11:30:58;101193.66;;;18.86;32.71
47761;BME280;33524;55.434;38.520;2023-04-07T11:33:29;101206.19;;;15.37;41.96
47761;BME280;33524;55.434;38.520;2023-04-07T11:36:00;101206.66;;;15.42;31.97
47761;BME280;33524;55.434;38.520;2023-04-07T11:38:34;101193.37;;;21.12;36.23
47761;BME280;33524;55.434;38.520;2023-04-07T11:41:11;101196.78;;;19.09;30.24
47761;BME280;33524;55.434;38.520;2023-04-07T11:43:40;101183.97;;;21.43;30.74
47761;BME280;33524;55.434;38.520;2023-04-07T11:46:17;101198.81;;;22.53;33.52
47761;BME280;33524;55.434;38.520;2023-04-07T11:48:45;101191.50;;;20.70;29.14
47761;BME280;33524;55.434;38.520;2023-04-07T11:51:18;101193.91;;;20.37;36.09
47761;BME280;33524;55.434;38.520;2023-04-07T11:53:54;101191.94;;;20.40;34.01
47761;BME280;33524;55.434;38.520;2023-04-07T11:56:23;101200.56;;;17.62;33.97
47761;BME280;33524;55.434;38.520;2023-04-07T11:58:53;101196.13;;;18.30;26.11
47761;BME280;33524;55.434;38.520;2023-04-07T12:01:21;101189.13;;;18.76;38.78
47761;BME280;33524;55.434;38.520;2023-04-07T12:03:59;101192.50;;;18.31;30.48
47761;BME280;33524;55.434;38.520;2023-04-07T12:06:30;101199.72;;;19.61;36.75
47761;BME280;33524;55.434;38.520;2023-04-07T12:09:02;101201.06;;;19.93;37.40
47761;BME280;33524;55.434;38.520;2023-04-07T12:11:32;101199.97;;;17.39;26.58
47761;BME280;33524;55.434;38.520;2023-04-07T12:14:00;101199.16;;;17.77;28.21
47761;BME280;33524;55.434;38.520;2023-04-07T12:16:37;101203.34;;;16.58;27.60
47761;BME280;33524;55.434;38.520;2023-04-07T12:19:05;101197.13;;;16.27;27.84
47761;BME280;33524;55.434;38.520;2023-04-07T12:21:34;101195.41;;;16.68;26.80
47761;BME280;33524;55.434;38.520;2023-04-07T12:24:02;101191.47;;;17.14;29.21
47761;BME280;33524;55.434;38.520;2023-04-07T12:26:30;101195.16;;;17.92;27.18
47761;BME280;33524;55.434;38.520;2023-04-07T12:28:58;101200.22;;;17.35;26.58
47761;BME280;33524;55.434;38.520;2023-04-07T12:31:32;101190.59;;;17.04;27.51
47761;BME280;33524;55.434;38.520;2023-04-07T12:34:01;101199.72;;;17.71;33.21
47761;BME280;33524;55.434;38.520;2023-04-07T12:36:30;101200.91;;;18.17;27.49
47761;BME280;33524;55.434;38.520;2023-04-07T12:38:58;101192.59;;;18.40;27.17
47761;BME280;33524;55.434;38.520;2023-04-07T12:41:27;101197.22;;;17.79;25.86
47761;BME280;33524;55.434;38.520;2023-04-07T12:43:55;101190.41;;;17.86;31.22
47761;BME280;33524;55.434;38.520;2023-04-07T12:46:23;101190.84;;;19.43;34.30
47761;BME280;33524;55.434;38.520;2023-04-07T12:48:51;101196.09;;;19.98;26.04
47761;BME280;33524;55.434;38.520;2023-04-07T12:51:19;101193.59;;;18.48;26.70
47761;BME280;33524;55.434;38.520;2023-04-07T12:53:47;101188.44;;;18.74;27.75
47761;BME280;33524;55.434;38.520;2023-04-07T12:56:16;101196.53;;;17.67;26.37
47761;BME280;33524;55.434;38.520;2023-04-07T12:58:44;101196.13;;;18.21;26.70
47761;BME280;33524;55.434;38.520;2023-04-07T13:01:12;101201.28;;;17.23;27.55
47761;BME280;33524;55.434;38.520;2023-04-07T13:03:41;101203.19;;;16.18;26.70
47761;BME280;33524;55.434;38.520;2023-04-07T13:06:10;101205.00;;;15.07;32.11
47761;BME280;33524;55.434;38.520;2023-04-07T13:08:39;101207.00;;;15.38;33.21
47761;BME280;33524;55.434;38.520;2023-04-07T13:11:07;101209.19;;;15.99;39.13
47761;BME280;33524;55.434;38.520;2023-04-07T13:13:35;101211.03;;;14.51;28.51
47761;BME280;33524;55.434;38.520;2023-04-07T13:16:03;101209.69;;;17.19;31.48
47761;BME280;33524;55.434;38.520;2023-04-07T13:18:31;101215.91;;;15.59;34.73